sensor_id;sensor_type;location;lat;lon;timestamp;P1;durP1;ratioP1;P2;durP2;ratioP2
7179;SDS011;3631;42.152;24.756;2024-03-06T00:01:51;48.70;;;23.73;;
7179;SDS011;3631;42.152;24.756;2024-03-06T00:04:18;46.70;;;24.50;;
7179;SDS011;3631;42.152;24.756;2024-03-06T00:06:45;46.60;;;22.77;;
7179;SDS011;3631;42.152;24.756;2024-03-06T00:09:12;48.83;;;23.97;;
7179;SDS011;3631;42.152;24.756;2024-03-06T00:11:39;46.50;;;23.57;;
7179;SDS011;3631;42.152;24.756;2024-03-06T00:14:06;59.03;;;27.70;;
7179;SDS011;3631;42.152;24.756;2024-03-06T00:16:33;47.27;;;26.33;;
7179;SDS011;3631;42.152;24.756;2024-03-06T00:19:01;48.93;;;26.10;;
7179;SDS011;3631;42.152;24.756;2024-03-06T00:21:28;50.40;;;26.53;;
7179;SDS011;3631;42.152;24.756;2024-03-06T00:23:55;55.83;;;27.60;;
7179;SDS011;3631;42.152;24.756;2024-03-06T00:26:22;48.03;;;26.47;;
7179;SDS011;3631;42.152;24.756;2024-03-06T00:28:49;54.37;;;26.53;;
7179;SDS011;3631;42.152;24.756;2024-03-06T00:31:16;54.50;;;27.27;;
7179;SDS011;3631;42.152;24.756;2024-03-06T00:33:43;52.10;;;25.67;;
7179;SDS011;3631;42.152;24.756;2024-03-06T00:36:11;54.33;;;26.27;;
7179;SDS011;3631;42.152;24.756;2024-03-06T00:38:38;50.50;;;26.13;;
7179;SDS011;3631;42.152;24.756;2024-03-06T00:41:05;48.33;;;25.00;;
7179;SDS011;3631;42.152;24.756;2024-03-06T00:43:32;47.50;;;23.63;;
7179;SDS011;3631;42.152;24.756;2024-03-06T00:45:59;46.00;;;24.63;;
7179;SDS011;3631;42.152;24.756;2024-03-06T00:48:26;40.80;;;22.10;;
7179;SDS011;3631;42.152;24.756;2024-03-06T00:50:53;46.03;;;23.33;;
7179;SDS011;3631;42.152;24.756;2024-03-06T00:53:21;43.30;;;22.53;;
7179;SDS011;3631;42.152;24.756;2024-03-06T00:55:49;44.10;;;22.60;;
7179;SDS011;3631;42.152;24.756;2024-03-06T00:58:16;46.80;;;24.67;;
7179;SDS011;3631;42.152;24.756;2024-03-06T01:00:42;50.87;;;25.00;;
7179;SDS011;3631;42.152;24.756;2024-03-06T01:03:09;51.60;;;27.40;;
7179;SDS011;3631;42.152;24.756;2024-03-06T01:05:36;55.07;;;28.40;;
7179;SDS011;3631;42.152;24.756;2024-03-06T01:08:03;57.67;;;27.77;;
7179;SDS011;3631;42.152;24.756;2024-03-06T01:10:31;59.43;;;27.80;;
7179;SDS011;3631;42.152;24.756;2024-03-06T01:12:58;55.33;;;28.20;;
7179;SDS011;3631;42.152;24.756;2024-03-06T01:15:25;59.87;;;28.73;;
7179;SDS011;3631;42.152;24.756;2024-03-06T01:17:52;59.13;;;28.77;;
7179;SDS011;3631;42.152;24.756;2024-03-06T01:20:19;52.20;;;28.20;;
7179;SDS011;3631;42.152;24.756;2024-03-06T01:22:46;54.63;;;28.70;;
7179;SDS011;3631;42.152;24.756;2024-03-06T01:25:13;56.40;;;28.93;;
7179;SDS011;3631;42.152;24.756;2024-03-06T01:27:41;48.83;;;25.87;;
7179;SDS011;3631;42.152;24.756;2024-03-06T01:30:08;53.03;;;27.63;;
7179;SDS011;3631;42.152;24.756;2024-03-06T01:32:35;55.30;;;28.17;;
7179;SDS011;3631;42.152;24.756;2024-03-06T01:35:03;52.97;;;27.10;;
7179;SDS011;3631;42.152;24.756;2024-03-06T01:37:31;46.83;;;25.90;;
7179;SDS011;3631;42.152;24.756;2024-03-06T01:39:58;52.70;;;27.20;;
7179;SDS011;3631;42.152;24.756;2024-03-06T01:42:25;54.97;;;27.20;;
7179;SDS011;3631;42.152;24.756;2024-03-06T01:44:53;51.43;;;26.20;;
7179;SDS011;3631;42.152;24.756;2024-03-06T01:47:20;54.03;;;26.73;;
7179;SDS011;3631;42.152;24.756;2024-03-06T01:49:47;44.67;;;24.83;;
7179;SDS011;3631;42.152;24.756;2024-03-06T01:52:14;46.40;;;24.93;;
7179;SDS011;3631;42.152;24.756;2024-03-06T01:54:43;47.17;;;24.50;;
7179;SDS011;3631;42.152;24.756;2024-03-06T01:57:11;46.30;;;25.50;;
7179;SDS011;3631;42.152;24.756;2024-03-06T01:59:39;48.00;;;25.57;;
7179;SDS011;3631;42.152;24.756;2024-03-06T02:02:09;47.57;;;24.27;;
7179;SDS011;3631;42.152;24.756;2024-03-06T02:04:36;46.73;;;25.77;;
7179;SDS011;3631;42.152;24.756;2024-03-06T02:07:03;51.23;;;26.43;;
7179;SDS011;3631;42.152;24.756;2024-03-06T02:09:35;46.20;;;26.00;;
7179;SDS011;3631;42.152;24.756;2024-03-06T02:12:03;48.20;;;26.33;;
7179;SDS011;3631;42.152;24.756;2024-03-06T02:14:30;50.10;;;26.73;;
7179;SDS011;3631;42.152;24.756;2024-03-06T02:16:57;53.03;;;26.73;;
7179;SDS011;3631;42.152;24.756;2024-03-06T02:19:25;58.07;;;27.27;;
7179;SDS011;3631;42.152;24.756;2024-03-06T02:22:05;52.73;;;26.67;;
7179;SDS011;3631;42.152;24.756;2024-03-06T02:24:32;49.70;;;25.73;;
7179;SDS011;3631;42.152;24.756;2024-03-06T02:26:59;49.83;;;26.47;;
7179;SDS011;3631;42.152;24.756;2024-03-06T02:29:26;48.83;;;25.57;;
7179;SDS011;3631;42.152;24.756;2024-03-06T02:31:53;50.90;;;25.97;;
7179;SDS011;3631;42.152;24.756;2024-03-06T02:34:20;51.53;;;27.90;;
7179;SDS011;3631;42.152;24.756;2024-03-06T02:36:47;49.27;;;27.47;;
7179;SDS011;3631;42.152;24.756;2024-03-06T02:39:15;51.70;;;25.47;;
7179;SDS011;3631;42.152;24.756;2024-03-06T02:41:42;51.40;;;27.03;;
7179;SDS011;3631;42.152;24.756;2024-03-06T02:44:09;50.60;;;26.43;;
7179;SDS011;3631;42.152;24.756;2024-03-06T02:46:36;50.77;;;25.13;;
7179;SDS011;3631;42.152;24.756;2024-03-06T02:49:03;50.53;;;25.70;;
7179;SDS011;3631;42.152;24.756;2024-03-06T02:51:31;50.00;;;26.63;;
7179;SDS011;3631;42.152;24.756;2024-03-06T02:53:58;49.80;;;25.73;;
7179;SDS011;3631;42.152;24.756;2024-03-06T02:56:26;46.47;;;25.20;;
7179;SDS011;3631;42.152;24.756;2024-03-06T02:58:53;43.27;;;24.57;;
7179;SDS011;3631;42.152;24.756;2024-03-06T03:01:20;47.23;;;26.17;;
7179;SDS011;3631;42.152;24.756;2024-03-06T03:03:47;48.83;;;26.47;;
7179;SDS011;3631;42.152;24.756;2024-03-06T03:06:14;43.00;;;24.67;;
7179;SDS011;3631;42.152;24.756;2024-03-06T03:08:41;42.80;;;24.80;;
7179;SDS011;3631;42.152;24.756;2024-03-06T03:11:08;44.07;;;24.90;;
7179;SDS011;3631;42.152;24.756;2024-03-06T03:13:36;42.97;;;23.80;;
7179;SDS011;3631;42.152;24.756;2024-03-06T03:16:03;42.00;;;24.40;;
7179;SDS011;3631;42.152;24.756;2024-03-06T03:18:31;41.87;;;25.07;;
7179;SDS011;3631;42.152;24.756;2024-03-06T03:20:57;45.00;;;24.83;;
7179;SDS011;3631;42.152;24.756;2024-03-06T03:23:24;46.03;;;26.07;;
7179;SDS011;3631;42.152;24.756;2024-03-06T03:25:51;41.97;;;25.93;;
7179;SDS011;3631;42.152;24.756;2024-03-06T03:28:18;53.63;;;27.13;;
7179;SDS011;3631;42.152;24.756;2024-03-06T03:30:46;44.23;;;25.53;;
7179;SDS011;3631;42.152;24.756;2024-03-06T03:33:13;46.30;;;24.57;;
7179;SDS011;3631;42.152;24.756;2024-03-06T03:35:40;43.97;;;25.33;;
7179;SDS011;3631;42.152;24.756;2024-03-06T03:38:07;45.87;;;24.53;;
7179;SDS011;3631;42.152;24.756;2024-03-06T03:40:34;43.43;;;24.20;;
7179;SDS011;3631;42.152;24.756;2024-03-06T03:43:01;46.97;;;25.10;;
7179;SDS011;3631;42.152;24.756;2024-03-06T03:45:31;40.77;;;24.43;;
7179;SDS011;3631;42.152;24.756;2024-03-06T03:48:01;46.67;;;25.53;;
7179;SDS011;3631;42.152;24.756;2024-03-06T03:50:28;42.97;;;24.50;;
7179;SDS011;3631;42.152;24.756;2024-03-06T03:52:55;47.53;;;25.93;;
7179;SDS011;3631;42.152;24.756;2024-03-06T03:55:26;44.20;;;24.10;;
7179;SDS011;3631;42.152;24.756;2024-03-06T03:57:53;44.03;;;24.53;;
7179;SDS011;3631;42.152;24.756;2024-03-06T04:00:20;39.53;;;23.67;;
7179;SDS011;3631;42.152;24.756;2024-03-06T04:02:47;40.97;;;22.60;;
7179;SDS011;3631;42.152;24.756;2024-03-06T04:05:16;39.93;;;23.33;;
7179;SDS011;3631;42.152;24.756;2024-03-06T04:07:42;43.00;;;22.60;;
7179;SDS011;3631;42.152;24.756;2024-03-06T04:10:09;42.17;;;22.37;;
7179;SDS011;3631;42.152;24.756;2024-03-06T04:12:37;35.23;;;21.40;;
7179;SDS011;3631;42.152;24.756;2024-03-06T04:15:05;36.07;;;20.87;;
7179;SDS011;3631;42.152;24.756;2024-03-06T04:17:34;39.63;;;21.03;;
7179;SDS011;3631;42.152;24.756;2024-03-06T04:20:01;33.23;;;20.03;;
7179;SDS011;3631;42.152;24.756;2024-03-06T04:22:30;33.23;;;19.57;;
7179;SDS011;3631;42.152;24.756;2024-03-06T04:24:57;31.03;;;18.60;;
7179;SDS011;3631;42.152;24.756;2024-03-06T04:27:24;31.03;;;18.33;;
7179;SDS011;3631;42.152;24.756;2024-03-06T04:29:51;31.03;;;17.43;;
7179;SDS011;3631;42.152;24.756;2024-03-06T04:32:18;30.40;;;17.80;;
7179;SDS011;3631;42.152;24.756;2024-03-06T04:34:45;26.53;;;16.77;;
7179;SDS011;3631;42.152;24.756;2024-03-06T04:37:12;26.30;;;16.67;;
7179;SDS011;3631;42.152;24.756;2024-03-06T04:39:41;31.90;;;17.37;;
7179;SDS011;3631;42.152;24.756;2024-03-06T04:42:08;26.67;;;16.27;;
7179;SDS011;3631;42.152;24.756;2024-03-06T04:44:35;30.00;;;17.83;;
7179;SDS011;3631;42.152;24.756;2024-03-06T04:47:02;28.70;;;17.83;;
7179;SDS011;3631;42.152;24.756;2024-03-06T04:49:32;31.53;;;17.93;;
7179;SDS011;3631;42.152;24.756;2024-03-06T04:51:59;31.60;;;18.93;;
7179;SDS011;3631;42.152;24.756;2024-03-06T04:54:26;29.83;;;17.60;;
7179;SDS011;3631;42.152;24.756;2024-03-06T04:56:54;30.00;;;18.47;;
7179;SDS011;3631;42.152;24.756;2024-03-06T04:59:21;24.80;;;16.40;;
7179;SDS011;3631;42.152;24.756;2024-03-06T05:01:48;28.67;;;19.85;;
7179;SDS011;3631;42.152;24.756;2024-03-06T05:04:15;28.87;;;17.77;;
7179;SDS011;3631;42.152;24.756;2024-03-06T05:06:42;24.80;;;16.03;;
7179;SDS011;3631;42.152;24.756;2024-03-06T05:09:09;26.97;;;15.70;;
7179;SDS011;3631;42.152;24.756;2024-03-06T05:11:36;20.57;;;14.07;;
7179;SDS011;3631;42.152;24.756;2024-03-06T05:14:05;27.97;;;15.47;;
7179;SDS011;3631;42.152;24.756;2024-03-06T05:16:32;22.67;;;13.83;;
7179;SDS011;3631;42.152;24.756;2024-03-06T05:18:59;20.60;;;13.80;;
7179;SDS011;3631;42.152;24.756;2024-03-06T05:21:26;20.40;;;13.87;;
7179;SDS011;3631;42.152;24.756;2024-03-06T05:23:53;20.83;;;13.17;;
7179;SDS011;3631;42.152;24.756;2024-03-06T05:26:20;20.07;;;13.73;;
7179;SDS011;3631;42.152;24.756;2024-03-06T05:28:47;20.93;;;13.50;;
7179;SDS011;3631;42.152;24.756;2024-03-06T05:31:19;23.67;;;15.07;;
7179;SDS011;3631;42.152;24.756;2024-03-06T05:33:47;23.00;;;13.93;;
7179;SDS011;3631;42.152;24.756;2024-03-06T05:36:15;23.53;;;13.30;;
7179;SDS011;3631;42.152;24.756;2024-03-06T05:38:42;20.63;;;12.77;;
7179;SDS011;3631;42.152;24.756;2024-03-06T05:41:09;22.97;;;13.37;;
7179;SDS011;3631;42.152;24.756;2024-03-06T05:43:36;25.60;;;14.43;;
7179;SDS011;3631;42.152;24.756;2024-03-06T05:46:03;21.33;;;13.37;;
7179;SDS011;3631;42.152;24.756;2024-03-06T05:48:32;22.90;;;14.03;;
7179;SDS011;3631;42.152;24.756;2024-03-06T05:50:59;22.73;;;14.03;;
7179;SDS011;3631;42.152;24.756;2024-03-06T05:53:26;22.17;;;14.80;;
7179;SDS011;3631;42.152;24.756;2024-03-06T05:55:53;20.57;;;13.53;;
7179;SDS011;3631;42.152;24.756;2024-03-06T05:58:20;19.47;;;12.97;;
7179;SDS011;3631;42.152;24.756;2024-03-06T06:00:47;22.50;;;13.70;;
7179;SDS011;3631;42.152;24.756;2024-03-06T06:03:14;18.50;;;12.77;;
7179;SDS011;3631;42.152;24.756;2024-03-06T06:05:42;15.50;;;11.53;;
7179;SDS011;3631;42.152;24.756;2024-03-06T06:08:09;17.77;;;12.40;;
7179;SDS011;3631;42.152;24.756;2024-03-06T06:10:36;15.88;;;12.98;;
7179;SDS011;3631;42.152;24.756;2024-03-06T06:13:03;17.85;;;12.52;;
7179;SDS011;3631;42.152;24.756;2024-03-06T06:15:30;18.87;;;12.50;;
7179;SDS011;3631;42.152;24.756;2024-03-06T06:17:57;16.20;;;12.07;;
7179;SDS011;3631;42.152;24.756;2024-03-06T06:20:24;17.97;;;12.23;;
7179;SDS011;3631;42.152;24.756;2024-03-06T06:22:53;20.20;;;12.47;;
7179;SDS011;3631;42.152;24.756;2024-03-06T06:25:20;14.43;;;11.40;;
7179;SDS011;3631;42.152;24.756;2024-03-06T06:27:47;14.20;;;11.43;;
7179;SDS011;3631;42.152;24.756;2024-03-06T06:30:14;16.50;;;11.23;;
7179;SDS011;3631;42.152;24.756;2024-03-06T06:32:42;14.37;;;10.80;;
7179;SDS011;3631;42.152;24.756;2024-03-06T06:35:09;17.63;;;11.70;;
7179;SDS011;3631;42.152;24.756;2024-03-06T06:37:38;13.47;;;10.80;;
7179;SDS011;3631;42.152;24.756;2024-03-06T06:40:08;14.73;;;10.87;;
7179;SDS011;3631;42.152;24.756;2024-03-06T06:42:43;18.47;;;10.73;;
7179;SDS011;3631;42.152;24.756;2024-03-06T06:45:12;18.20;;;11.40;;
7179;SDS011;3631;42.152;24.756;2024-03-06T06:47:39;13.50;;;10.37;;
7179;SDS011;3631;42.152;24.756;2024-03-06T06:50:06;13.00;;;10.02;;
7179;SDS011;3631;42.152;24.756;2024-03-06T06:52:34;15.30;;;10.25;;
7179;SDS011;3631;42.152;24.756;2024-03-06T06:55:01;16.70;;;10.45;;
7179;SDS011;3631;42.152;24.756;2024-03-06T06:57:30;17.67;;;10.82;;
7179;SDS011;3631;42.152;24.756;2024-03-06T06:59:58;11.55;;;9.80;;
7179;SDS011;3631;42.152;24.756;2024-03-06T07:02:25;15.02;;;10.18;;
7179;SDS011;3631;42.152;24.756;2024-03-06T07:04:52;16.40;;;10.57;;
7179;SDS011;3631;42.152;24.756;2024-03-06T07:07:19;14.40;;;9.98;;
7179;SDS011;3631;42.152;24.756;2024-03-06T07:09:46;13.45;;;9.65;;
7179;SDS011;3631;42.152;24.756;2024-03-06T07:12:14;15.43;;;10.30;;
7179;SDS011;3631;42.152;24.756;2024-03-06T07:14:42;13.93;;;10.85;;
7179;SDS011;3631;42.152;24.756;2024-03-06T07:17:09;15.90;;;11.23;;
7179;SDS011;3631;42.152;24.756;2024-03-06T07:19:36;20.23;;;11.98;;
7179;SDS011;3631;42.152;24.756;2024-03-06T07:22:03;16.50;;;12.25;;
7179;SDS011;3631;42.152;24.756;2024-03-06T07:24:29;15.20;;;11.45;;
7179;SDS011;3631;42.152;24.756;2024-03-06T07:26:56;14.13;;;12.00;;
7179;SDS011;3631;42.152;24.756;2024-03-06T07:29:23;11.60;;;10.43;;
7179;SDS011;3631;42.152;24.756;2024-03-06T07:31:51;13.13;;;11.38;;
7179;SDS011;3631;42.152;24.756;2024-03-06T07:34:19;13.95;;;11.20;;
7179;SDS011;3631;42.152;24.756;2024-03-06T07:36:46;16.88;;;13.85;;
7179;SDS011;3631;42.152;24.756;2024-03-06T07:39:14;17.15;;;13.68;;
7179;SDS011;3631;42.152;24.756;2024-03-06T07:41:42;17.75;;;11.73;;
7179;SDS011;3631;42.152;24.756;2024-03-06T07:44:09;18.88;;;11.55;;
7179;SDS011;3631;42.152;24.756;2024-03-06T07:46:36;14.75;;;10.00;;
7179;SDS011;3631;42.152;24.756;2024-03-06T07:49:04;15.70;;;10.43;;
7179;SDS011;3631;42.152;24.756;2024-03-06T07:51:31;12.18;;;10.55;;
7179;SDS011;3631;42.152;24.756;2024-03-06T07:53:58;17.05;;;11.43;;
7179;SDS011;3631;42.152;24.756;2024-03-06T07:56:25;13.57;;;10.32;;
7179;SDS011;3631;42.152;24.756;2024-03-06T07:58:53;15.93;;;10.43;;
7179;SDS011;3631;42.152;24.756;2024-03-06T08:01:21;14.85;;;11.27;;
7179;SDS011;3631;42.152;24.756;2024-03-06T08:03:49;12.88;;;10.00;;
7179;SDS011;3631;42.152;24.756;2024-03-06T08:06:18;11.98;;;9.70;;
7179;SDS011;3631;42.152;24.756;2024-03-06T08:08:44;12.73;;;10.05;;
7179;SDS011;3631;42.152;24.756;2024-03-06T08:11:12;11.60;;;9.32;;
7179;SDS011;3631;42.152;24.756;2024-03-06T08:13:39;14.30;;;9.70;;
7179;SDS011;3631;42.152;24.756;2024-03-06T08:16:07;13.95;;;10.18;;
7179;SDS011;3631;42.152;24.756;2024-03-06T08:18:34;11.27;;;9.50;;
7179;SDS011;3631;42.152;24.756;2024-03-06T08:21:02;14.82;;;10.48;;
7179;SDS011;3631;42.152;24.756;2024-03-06T08:23:32;15.45;;;9.57;;
7179;SDS011;3631;42.152;24.756;2024-03-06T08:25:59;10.40;;;9.30;;
7179;SDS011;3631;42.152;24.756;2024-03-06T08:28:26;12.47;;;9.33;;
7179;SDS011;3631;42.152;24.756;2024-03-06T08:30:53;9.87;;;8.83;;
7179;SDS011;3631;42.152;24.756;2024-03-06T08:33:20;14.23;;;9.67;;
7179;SDS011;3631;42.152;24.756;2024-03-06T08:35:47;16.10;;;10.73;;
7179;SDS011;3631;42.152;24.756;2024-03-06T08:38:14;12.23;;;9.47;;
7179;SDS011;3631;42.152;24.756;2024-03-06T08:40:43;12.90;;;9.33;;
7179;SDS011;3631;42.152;24.756;2024-03-06T08:43:11;13.00;;;9.93;;
7179;SDS011;3631;42.152;24.756;2024-03-06T08:45:40;13.77;;;9.83;;
7179;SDS011;3631;42.152;24.756;2024-03-06T08:48:07;14.13;;;9.63;;
7179;SDS011;3631;42.152;24.756;2024-03-06T08:50:34;11.63;;;9.33;;
7179;SDS011;3631;42.152;24.756;2024-03-06T08:53:01;14.53;;;9.57;;
7179;SDS011;3631;42.152;24.756;2024-03-06T08:55:28;16.57;;;10.27;;
7179;SDS011;3631;42.152;24.756;2024-03-06T08:57:56;14.43;;;10.00;;
7179;SDS011;3631;42.152;24.756;2024-03-06T09:00:23;17.57;;;9.63;;
7179;SDS011;3631;42.152;24.756;2024-03-06T09:02:52;10.87;;;8.77;;
7179;SDS011;3631;42.152;24.756;2024-03-06T09:05:18;15.17;;;10.10;;
7179;SDS011;3631;42.152;24.756;2024-03-06T09:07:47;17.97;;;10.23;;
7179;SDS011;3631;42.152;24.756;2024-03-06T09:10:14;16.63;;;10.67;;
7179;SDS011;3631;42.152;24.756;2024-03-06T09:12:40;24.70;;;10.20;;
7179;SDS011;3631;42.152;24.756;2024-03-06T09:15:09;9.57;;;8.57;;
7179;SDS011;3631;42.152;24.756;2024-03-06T09:17:36;12.57;;;9.03;;
7179;SDS011;3631;42.152;24.756;2024-03-06T09:20:04;12.10;;;8.57;;
7179;SDS011;3631;42.152;24.756;2024-03-06T09:22:35;10.60;;;8.93;;
7179;SDS011;3631;42.152;24.756;2024-03-06T09:25:03;13.40;;;9.13;;
7179;SDS011;3631;42.152;24.756;2024-03-06T09:27:30;15.10;;;10.90;;
7179;SDS011;3631;42.152;24.756;2024-03-06T09:29:58;16.00;;;9.67;;
7179;SDS011;3631;42.152;24.756;2024-03-06T09:32:26;14.33;;;9.37;;
7179;SDS011;3631;42.152;24.756;2024-03-06T09:34:54;12.63;;;8.90;;
7179;SDS011;3631;42.152;24.756;2024-03-06T09:37:21;19.13;;;9.90;;
7179;SDS011;3631;42.152;24.756;2024-03-06T09:39:48;11.93;;;9.00;;
7179;SDS011;3631;42.152;24.756;2024-03-06T09:42:15;15.57;;;10.23;;
7179;SDS011;3631;42.152;24.756;2024-03-06T09:44:43;21.33;;;12.90;;
7179;SDS011;3631;42.152;24.756;2024-03-06T09:47:13;16.13;;;10.20;;
7179;SDS011;3631;42.152;24.756;2024-03-06T09:49:42;13.03;;;9.63;;
7179;SDS011;3631;42.152;24.756;2024-03-06T09:52:09;10.60;;;9.07;;
7179;SDS011;3631;42.152;24.756;2024-03-06T09:54:37;13.53;;;8.90;;
7179;SDS011;3631;42.152;24.756;2024-03-06T09:57:04;15.17;;;9.20;;
7179;SDS011;3631;42.152;24.756;2024-03-06T09:59:32;12.93;;;8.30;;
7179;SDS011;3631;42.152;24.756;2024-03-06T10:02:00;14.83;;;8.83;;
7179;SDS011;3631;42.152;24.756;2024-03-06T10:04:28;14.67;;;10.07;;
7179;SDS011;3631;42.152;24.756;2024-03-06T10:07:00;13.77;;;8.97;;
7179;SDS011;3631;42.152;24.756;2024-03-06T10:09:27;11.87;;;8.80;;
7179;SDS011;3631;42.152;24.756;2024-03-06T10:11:56;9.10;;;7.87;;
7179;SDS011;3631;42.152;24.756;2024-03-06T10:14:23;10.83;;;8.57;;
7179;SDS011;3631;42.152;24.756;2024-03-06T10:16:53;11.23;;;8.43;;
7179;SDS011;3631;42.152;24.756;2024-03-06T10:19:21;11.30;;;8.87;;
7179;SDS011;3631;42.152;24.756;2024-03-06T10:21:49;12.47;;;9.53;;
7179;SDS011;3631;42.152;24.756;2024-03-06T10:24:19;13.10;;;10.13;;
7179;SDS011;3631;42.152;24.756;2024-03-06T10:26:48;14.33;;;9.17;;
7179;SDS011;3631;42.152;24.756;2024-03-06T10:29:16;16.30;;;9.10;;
7179;SDS011;3631;42.152;24.756;2024-03-06T10:31:48;12.30;;;8.90;;
7179;SDS011;3631;42.152;24.756;2024-03-06T10:34:16;10.03;;;8.73;;
7179;SDS011;3631;42.152;24.756;2024-03-06T10:36:43;10.90;;;8.40;;
7179;SDS011;3631;42.152;24.756;2024-03-06T10:39:10;15.40;;;9.27;;
7179;SDS011;3631;42.152;24.756;2024-03-06T10:41:42;12.52;;;9.15;;
7179;SDS011;3631;42.152;24.756;2024-03-06T10:44:11;11.07;;;8.53;;
7179;SDS011;3631;42.152;24.756;2024-03-06T10:46:40;8.63;;;7.73;;
7179;SDS011;3631;42.152;24.756;2024-03-06T10:49:11;9.27;;;7.83;;
7179;SDS011;3631;42.152;24.756;2024-03-06T10:51:38;11.52;;;8.25;;
7179;SDS011;3631;42.152;24.756;2024-03-06T10:54:09;10.55;;;7.75;;
7179;SDS011;3631;42.152;24.756;2024-03-06T10:56:38;9.70;;;7.50;;
7179;SDS011;3631;42.152;24.756;2024-03-06T10:59:09;9.18;;;7.57;;
7179;SDS011;3631;42.152;24.756;2024-03-06T11:01:38;10.40;;;7.63;;
7179;SDS011;3631;42.152;24.756;2024-03-06T11:04:09;9.65;;;6.88;;
7179;SDS011;3631;42.152;24.756;2024-03-06T11:06:36;11.65;;;7.68;;
7179;SDS011;3631;42.152;24.756;2024-03-06T11:09:04;7.65;;;6.95;;
7179;SDS011;3631;42.152;24.756;2024-03-06T11:11:32;9.43;;;7.57;;
7179;SDS011;3631;42.152;24.756;2024-03-06T11:14:14;8.00;;;7.07;;
7179;SDS011;3631;42.152;24.756;2024-03-06T11:19:25;15.57;;;10.95;;
7179;SDS011;3631;42.152;24.756;2024-03-06T11:21:54;9.93;;;7.22;;
7179;SDS011;3631;42.152;24.756;2024-03-06T11:24:21;8.65;;;7.72;;
7179;SDS011;3631;42.152;24.756;2024-03-06T11:26:49;12.32;;;6.97;;
7179;SDS011;3631;42.152;24.756;2024-03-06T11:29:18;9.82;;;7.78;;
7179;SDS011;3631;42.152;24.756;2024-03-06T11:32:01;8.52;;;7.60;;
7179;SDS011;3631;42.152;24.756;2024-03-06T11:34:32;9.27;;;7.35;;
7179;SDS011;3631;42.152;24.756;2024-03-06T11:36:59;15.15;;;8.48;;
7179;SDS011;3631;42.152;24.756;2024-03-06T11:39:34;13.57;;;8.40;;
7179;SDS011;3631;42.152;24.756;2024-03-06T11:42:02;13.93;;;7.88;;
7179;SDS011;3631;42.152;24.756;2024-03-06T11:44:35;13.32;;;8.50;;
7179;SDS011;3631;42.152;24.756;2024-03-06T11:47:03;10.43;;;9.32;;
7179;SDS011;3631;42.152;24.756;2024-03-06T11:49:32;14.43;;;10.15;;
7179;SDS011;3631;42.152;24.756;2024-03-06T11:52:01;12.02;;;9.32;;
7179;SDS011;3631;42.152;24.756;2024-03-06T11:54:30;14.38;;;10.88;;
7179;SDS011;3631;42.152;24.756;2024-03-06T11:56:58;17.40;;;10.95;;
7179;SDS011;3631;42.152;24.756;2024-03-06T11:59:26;19.15;;;11.52;;
7179;SDS011;3631;42.152;24.756;2024-03-06T12:01:56;19.47;;;12.60;;
7179;SDS011;3631;42.152;24.756;2024-03-06T12:04:26;15.85;;;11.93;;
7179;SDS011;3631;42.152;24.756;2024-03-06T12:06:56;15.70;;;11.67;;
7179;SDS011;3631;42.152;24.756;2024-03-06T12:09:23;17.43;;;11.90;;
7179;SDS011;3631;42.152;24.756;2024-03-06T12:11:50;19.23;;;12.27;;
7179;SDS011;3631;42.152;24.756;2024-03-06T12:14:17;17.30;;;12.37;;
7179;SDS011;3631;42.152;24.756;2024-03-06T12:16:54;15.53;;;11.40;;
7179;SDS011;3631;42.152;24.756;2024-03-06T12:19:24;15.97;;;12.47;;
7179;SDS011;3631;42.152;24.756;2024-03-06T12:21:52;14.13;;;11.17;;
7179;SDS011;3631;42.152;24.756;2024-03-06T12:24:19;19.87;;;12.60;;
7179;SDS011;3631;42.152;24.756;2024-03-06T12:26:46;15.27;;;11.67;;
7179;SDS011;3631;42.152;24.756;2024-03-06T12:29:27;22.60;;;12.43;;
7179;SDS011;3631;42.152;24.756;2024-03-06T12:31:57;19.53;;;12.83;;
7179;SDS011;3631;42.152;24.756;2024-03-06T12:34:24;17.33;;;11.90;;
7179;SDS011;3631;42.152;24.756;2024-03-06T12:36:51;15.83;;;11.47;;
7179;SDS011;3631;42.152;24.756;2024-03-06T12:39:18;16.93;;;12.57;;
7179;SDS011;3631;42.152;24.756;2024-03-06T12:41:48;15.10;;;11.30;;
7179;SDS011;3631;42.152;24.756;2024-03-06T12:44:15;18.00;;;11.90;;
7179;SDS011;3631;42.152;24.756;2024-03-06T12:46:42;20.27;;;12.43;;
7179;SDS011;3631;42.152;24.756;2024-03-06T12:49:11;19.00;;;11.83;;
7179;SDS011;3631;42.152;24.756;2024-03-06T12:51:38;19.30;;;12.33;;
7179;SDS011;3631;42.152;24.756;2024-03-06T12:54:05;18.93;;;12.63;;
7179;SDS011;3631;42.152;24.756;2024-03-06T12:56:33;14.50;;;11.93;;
7179;SDS011;3631;42.152;24.756;2024-03-06T12:59:01;19.43;;;12.30;;
7179;SDS011;3631;42.152;24.756;2024-03-06T13:01:28;17.03;;;11.50;;
7179;SDS011;3631;42.152;24.756;2024-03-06T13:03:55;20.23;;;12.10;;
7179;SDS011;3631;42.152;24.756;2024-03-06T13:06:23;20.57;;;12.00;;
7179;SDS011;3631;42.152;24.756;2024-03-06T13:08:53;15.83;;;12.17;;
7179;SDS011;3631;42.152;24.756;2024-03-06T13:11:20;20.37;;;11.90;;
7179;SDS011;3631;42.152;24.756;2024-03-06T13:13:47;17.27;;;12.00;;
7179;SDS011;3631;42.152;24.756;2024-03-06T13:16:14;17.13;;;12.17;;
7179;SDS011;3631;42.152;24.756;2024-03-06T13:18:41;16.30;;;12.60;;
7179;SDS011;3631;42.152;24.756;2024-03-06T13:21:08;17.47;;;12.10;;
7179;SDS011;3631;42.152;24.756;2024-03-06T13:23:37;17.40;;;12.43;;
7179;SDS011;3631;42.152;24.756;2024-03-06T13:26:04;17.33;;;12.27;;
7179;SDS011;3631;42.152;24.756;2024-03-06T13:28:31;19.07;;;12.37;;
7179;SDS011;3631;42.152;24.756;2024-03-06T13:30:58;21.93;;;13.13;;
7179;SDS011;3631;42.152;24.756;2024-03-06T13:33:25;17.83;;;12.37;;
7179;SDS011;3631;42.152;24.756;2024-03-06T13:35:53;20.13;;;13.00;;
7179;SDS011;3631;42.152;24.756;2024-03-06T13:38:19;20.57;;;13.07;;
7179;SDS011;3631;42.152;24.756;2024-03-06T13:40:47;17.93;;;12.77;;
7179;SDS011;3631;42.152;24.756;2024-03-06T13:43:14;26.50;;;13.80;;
7179;SDS011;3631;42.152;24.756;2024-03-06T13:45:47;16.37;;;12.03;;
7179;SDS011;3631;42.152;24.756;2024-03-06T13:48:15;15.13;;;12.40;;
7179;SDS011;3631;42.152;24.756;2024-03-06T13:50:42;19.57;;;13.13;;
7179;SDS011;3631;42.152;24.756;2024-03-06T13:53:09;16.10;;;11.97;;
7179;SDS011;3631;42.152;24.756;2024-03-06T13:55:36;16.37;;;12.07;;
7179;SDS011;3631;42.152;24.756;2024-03-06T13:58:04;13.93;;;11.60;;
7179;SDS011;3631;42.152;24.756;2024-03-06T14:00:32;18.33;;;11.47;;
7179;SDS011;3631;42.152;24.756;2024-03-06T14:03:00;15.73;;;10.70;;
7179;SDS011;3631;42.152;24.756;2024-03-06T14:05:27;18.00;;;10.97;;
7179;SDS011;3631;42.152;24.756;2024-03-06T14:07:54;15.07;;;10.60;;
7179;SDS011;3631;42.152;24.756;2024-03-06T14:10:21;23.57;;;10.67;;
7179;SDS011;3631;42.152;24.756;2024-03-06T14:12:49;19.17;;;10.30;;
7179;SDS011;3631;42.152;24.756;2024-03-06T14:15:18;13.60;;;10.37;;
7179;SDS011;3631;42.152;24.756;2024-03-06T14:17:47;20.47;;;10.67;;
7179;SDS011;3631;42.152;24.756;2024-03-06T14:20:14;13.27;;;8.40;;
7179;SDS011;3631;42.152;24.756;2024-03-06T14:22:42;16.57;;;9.83;;
7179;SDS011;3631;42.152;24.756;2024-03-06T14:25:09;14.97;;;10.13;;
7179;SDS011;3631;42.152;24.756;2024-03-06T14:27:36;15.27;;;8.53;;
7179;SDS011;3631;42.152;24.756;2024-03-06T14:30:04;10.70;;;8.50;;
7179;SDS011;3631;42.152;24.756;2024-03-06T14:32:34;13.70;;;8.80;;
7179;SDS011;3631;42.152;24.756;2024-03-06T14:35:01;14.50;;;7.50;;
7179;SDS011;3631;42.152;24.756;2024-03-06T14:37:29;12.83;;;8.20;;
7179;SDS011;3631;42.152;24.756;2024-03-06T14:39:55;11.63;;;7.83;;
7179;SDS011;3631;42.152;24.756;2024-03-06T14:45:44;14.07;;;8.60;;
7179;SDS011;3631;42.152;24.756;2024-03-06T14:48:13;19.07;;;9.47;;